createdAt,value
2022-11-26T00:01:22.027Z,10.40
2022-11-26T00:05:24.096Z,11.60
2022-11-26T00:09:25.184Z,11.60
2022-11-26T00:13:29.578Z,9.80
2022-11-26T00:17:30.737Z,12.23
2022-11-26T00:21:34.482Z,10.73
2022-11-26T00:25:42.365Z,9.97
2022-11-26T00:29:43.624Z,10.13
2022-11-26T00:33:45.282Z,10.87
2022-11-26T00:37:55.886Z,12.83
2022-11-26T00:41:56.929Z,11.97
2022-11-26T00:45:57.963Z,11.90
2022-11-26T00:49:59.101Z,12.87
2022-11-26T00:54:02.030Z,12.73
2022-11-26T00:58:03.878Z,14.30
2022-11-26T01:02:05.128Z,14.73
2022-11-26T01:06:10.081Z,15.63
2022-11-26T01:10:16.986Z,14.17
2022-11-26T01:14:19.985Z,14.27
2022-11-26T01:18:22.180Z,13.57
2022-11-26T01:22:23.604Z,15.80
2022-11-26T01:26:27.126Z,15.97
2022-11-26T01:30:31.493Z,16.80
2022-11-26T01:34:32.670Z,16.47
2022-11-26T01:38:34.036Z,17.67
2022-11-26T01:42:39.069Z,17.23
2022-11-26T01:46:40.784Z,15.20
2022-11-26T01:50:54.963Z,17.37
2022-11-26T01:54:56.177Z,17.40
2022-11-26T01:59:03.881Z,16.03
2022-11-26T02:03:05.968Z,16.57
2022-11-26T02:07:07.310Z,16.70
2022-11-26T02:11:14.881Z,19.02
2022-11-26T02:15:16.357Z,15.37
2022-11-26T02:19:36.082Z,16.87
2022-11-26T02:24:02.787Z,17.73
2022-11-26T02:28:30.035Z,17.90
2022-11-26T02:32:43.395Z,16.10
2022-11-26T02:36:48.491Z,20.33
2022-11-26T02:40:51.353Z,16.23
2022-11-26T02:44:55.370Z,17.47
2022-11-26T02:48:56.630Z,18.23
2022-11-26T02:52:58.870Z,19.07
2022-11-26T02:57:03.681Z,19.13
2022-11-26T03:01:08.907Z,19.70
2022-11-26T03:05:12.157Z,18.67
2022-11-26T03:09:15.857Z,18.90
2022-11-26T03:13:17.408Z,19.67
2022-11-26T03:17:18.962Z,20.93
2022-11-26T03:21:20.262Z,22.53
2022-11-26T03:25:21.444Z,20.43
2022-11-26T03:29:22.654Z,17.67
2022-11-26T03:33:23.686Z,18.57
2022-11-26T03:37:24.940Z,17.30
2022-11-26T03:41:26.082Z,17.63
2022-11-26T03:45:27.370Z,17.43
2022-11-26T03:49:28.581Z,16.87
2022-11-26T03:53:29.822Z,17.03
2022-11-26T03:57:30.804Z,18.03
2022-11-26T04:01:32.125Z,18.80
2022-11-26T04:05:33.237Z,17.53
2022-11-26T04:09:34.245Z,18.17
2022-11-26T04:13:35.432Z,20.80
2022-11-26T04:17:36.423Z,17.70
2022-11-26T04:21:37.782Z,19.60
2022-11-26T04:25:38.766Z,19.60
2022-11-26T04:29:40.179Z,17.70
2022-11-26T04:33:42.228Z,16.50
2022-11-26T04:37:43.336Z,16.67
2022-11-26T04:41:44.560Z,15.17
2022-11-26T04:45:45.830Z,18.17
2022-11-26T04:49:46.965Z,17.17
2022-11-26T04:53:48.128Z,18.17
2022-11-26T04:57:49.248Z,16.87
2022-11-26T05:01:50.401Z,15.03
2022-11-26T05:05:51.536Z,15.57
2022-11-26T05:09:54.422Z,18.77
2022-11-26T05:13:55.472Z,20.90
2022-11-26T05:17:56.494Z,17.10
2022-11-26T05:21:57.689Z,18.33
2022-11-26T05:25:58.978Z,20.70
2022-11-26T05:30:00.408Z,18.80
2022-11-26T05:34:01.499Z,17.87
2022-11-26T05:38:02.721Z,17.33
2022-11-26T05:42:08.960Z,21.13
2022-11-26T05:46:08.362Z,17.13
2022-11-26T05:50:10.313Z,19.70
2022-11-26T05:54:13.960Z,18.80
2022-11-26T05:58:15.077Z,21.73
2022-11-26T06:02:16.447Z,22.47
2022-11-26T06:06:17.635Z,27.20
2022-11-26T06:10:19.061Z,23.13
2022-11-26T06:14:20.526Z,23.83
2022-11-26T06:18:21.567Z,21.83
2022-11-26T06:22:22.760Z,17.17
2022-11-26T06:26:23.974Z,15.63
2022-11-26T06:30:25.203Z,16.23
2022-11-26T06:34:26.423Z,15.10
2022-11-26T06:38:28.141Z,14.60
2022-11-26T06:42:29.295Z,16.57
2022-11-26T06:46:30.494Z,20.33
2022-11-26T06:50:31.539Z,23.03
2022-11-26T06:54:32.878Z,23.10
2022-11-26T06:58:34.119Z,26.53
2022-11-26T07:02:36.442Z,27.13
2022-11-26T07:06:38.123Z,26.83
2022-11-26T07:10:39.359Z,23.17
2022-11-26T07:14:40.658Z,23.93
2022-11-26T07:18:42.186Z,21.33
2022-11-26T07:22:43.384Z,21.47
2022-11-26T07:26:44.384Z,18.60
2022-11-26T07:30:45.436Z,22.63
2022-11-26T07:34:46.534Z,38.90
2022-11-26T07:38:48.131Z,37.07
2022-11-26T07:42:53.055Z,33.33
2022-11-26T07:46:52.296Z,28.17
2022-11-26T07:50:53.448Z,23.67
2022-11-26T07:54:54.426Z,29.90
2022-11-26T07:58:55.573Z,36.27
2022-11-26T08:02:56.787Z,27.70
2022-11-26T08:06:57.767Z,28.13
2022-11-26T08:10:58.877Z,28.00
2022-11-26T08:15:00.011Z,25.20
2022-11-26T08:19:07.095Z,31.43
2022-11-26T08:23:08.290Z,28.73
2022-11-26T08:27:09.766Z,29.83
2022-11-26T08:31:12.248Z,25.67
2022-11-26T08:35:13.747Z,26.67
2022-11-26T08:39:16.979Z,23.90
2022-11-26T08:43:18.023Z,18.50
2022-11-26T08:47:19.247Z,40.47
2022-11-26T08:51:20.436Z,39.50
2022-11-26T08:55:24.040Z,27.53
2022-11-26T08:59:24.760Z,27.43
2022-11-26T09:03:26.099Z,25.03
2022-11-26T09:07:27.905Z,19.13
2022-11-26T09:11:29.177Z,20.83
2022-11-26T09:15:30.487Z,18.93
2022-11-26T09:19:31.797Z,18.47
2022-11-26T09:23:33.204Z,21.17
2022-11-26T09:27:34.274Z,19.80
2022-11-26T09:31:35.454Z,18.87
2022-11-26T09:35:36.691Z,17.33
2022-11-26T09:39:38.314Z,14.33
2022-11-26T09:44:01.100Z,13.33
2022-11-26T09:48:03.556Z,10.57
2022-11-26T09:52:07.369Z,7.87
2022-11-26T09:56:19.007Z,10.33
2022-11-26T10:00:23.897Z,10.27
2022-11-26T10:04:28.741Z,10.00
2022-11-26T10:08:39.861Z,9.03
2022-11-26T10:13:19.029Z,7.43
2022-11-26T10:17:29.597Z,6.40
2022-11-26T10:21:58.762Z,7.83
2022-11-26T10:25:49.569Z,5.90
2022-11-26T10:30:03.853Z,8.63
2022-11-26T10:34:17.439Z,8.40
2022-11-26T10:38:18.736Z,11.33
2022-11-26T10:42:22.063Z,9.53
2022-11-26T10:46:35.612Z,8.40
2022-11-26T10:50:47.553Z,9.47
2022-11-26T10:54:41.412Z,8.50
2022-11-26T10:58:44.786Z,9.40
2022-11-26T11:02:48.229Z,8.73
2022-11-26T11:06:49.835Z,9.23
2022-11-26T11:10:56.568Z,8.43
2022-11-26T11:15:19.752Z,7.73
2022-11-26T11:19:26.553Z,6.53
2022-11-26T11:24:00.263Z,8.07
2022-11-26T11:27:43.402Z,9.30
2022-11-26T11:31:45.726Z,8.77
2022-11-26T11:35:59.222Z,10.63
2022-11-26T11:40:06.517Z,10.93
2022-11-26T11:44:26.369Z,12.50
2022-11-26T11:48:31.491Z,14.60
2022-11-26T11:53:01.783Z,13.30
2022-11-26T11:57:23.766Z,14.93
2022-11-26T12:01:37.887Z,14.17
2022-11-26T12:06:01.027Z,15.53
2022-11-26T12:10:13.038Z,18.03
2022-11-26T12:14:37.798Z,20.70
2022-11-26T12:18:57.881Z,19.90
2022-11-26T12:23:09.027Z,24.10
2022-11-26T12:27:18.540Z,19.93
2022-11-26T12:31:32.548Z,18.97
2022-11-26T12:35:43.561Z,19.10
2022-11-26T12:39:57.454Z,20.57
2022-11-26T12:44:19.494Z,22.40
2022-11-26T12:48:27.520Z,18.80
2022-11-26T12:52:32.430Z,18.80
2022-11-26T12:56:37.540Z,20.93
2022-11-26T13:00:39.138Z,19.73
2022-11-26T13:04:40.661Z,19.93
2022-11-26T13:09:05.405Z,19.73
2022-11-26T13:13:19.523Z,20.67
2022-11-26T13:17:24.466Z,18.17
2022-11-26T13:21:44.663Z,12.93
2022-11-26T13:25:52.610Z,11.67
2022-11-26T13:30:03.648Z,11.57
2022-11-26T13:34:08.539Z,12.83
2022-11-26T13:38:31.992Z,14.23
2022-11-26T13:42:43.130Z,14.30
2022-11-26T13:47:03.421Z,12.93
2022-11-26T13:51:08.386Z,15.97
2022-11-26T13:55:16.685Z,15.33
2022-11-26T13:59:28.066Z,14.93
2022-11-26T14:03:46.605Z,16.53
2022-11-26T14:07:47.821Z,15.13
2022-11-26T14:11:53.550Z,16.97
2022-11-26T14:16:01.788Z,17.13
2022-11-26T14:20:04.937Z,13.97
2022-11-26T14:24:06.141Z,16.73
2022-11-26T14:28:09.437Z,17.13
2022-11-26T14:32:21.458Z,17.20
2022-11-26T14:36:25.880Z,15.43
2022-11-26T14:40:30.327Z,18.93
2022-11-26T14:44:32.268Z,17.17
2022-11-26T14:48:36.831Z,15.53
2022-11-26T14:52:40.715Z,17.03
2022-11-26T14:56:46.294Z,17.90
2022-11-26T15:01:03.811Z,18.60
2022-11-26T15:05:25.813Z,18.13
2022-11-26T15:09:30.455Z,17.87
2022-11-26T15:13:41.200Z,19.17
2022-11-26T15:17:49.265Z,19.37
2022-11-26T15:21:51.550Z,20.13
2022-11-26T15:25:53.930Z,25.77
2022-11-26T15:29:55.065Z,27.50
2022-11-26T15:33:56.477Z,22.77
2022-11-26T15:37:57.992Z,25.07
2022-11-26T15:42:02.936Z,27.15
2022-11-26T15:46:07.954Z,23.67
2022-11-26T15:50:13.212Z,25.83
2022-11-26T15:54:18.297Z,25.37
2022-11-26T15:58:23.192Z,22.27
2022-11-26T16:02:26.625Z,22.00
2022-11-26T16:06:33.965Z,25.27
2022-11-26T16:10:35.034Z,26.00
2022-11-26T16:14:38.659Z,29.33
2022-11-26T16:18:49.954Z,37.67
2022-11-26T16:22:54.537Z,32.70
2022-11-26T16:27:08.924Z,30.73
2022-11-26T16:31:10.535Z,24.03
2022-11-26T16:35:37.493Z,23.63
2022-11-26T16:39:16.191Z,21.93
2022-11-26T16:43:17.868Z,25.53
2022-11-26T16:47:28.932Z,23.30
2022-11-26T16:51:30.215Z,23.13
2022-11-26T16:55:31.443Z,24.33
2022-11-26T16:59:32.595Z,22.13
2022-11-26T17:03:34.741Z,26.17
2022-11-26T17:07:42.884Z,33.30
2022-11-26T17:11:44.367Z,24.33
2022-11-26T17:15:47.264Z,25.03
2022-11-26T17:19:48.604Z,27.50
2022-11-26T17:23:49.790Z,30.20
2022-11-26T17:27:51.095Z,24.77
2022-11-26T17:31:52.129Z,28.98
2022-11-26T17:35:53.284Z,28.80
2022-11-26T17:39:55.785Z,21.50
2022-11-26T17:43:56.811Z,23.07
2022-11-26T17:47:57.866Z,21.10
2022-11-26T17:51:58.963Z,25.97
2022-11-26T17:56:00.080Z,20.03
2022-11-26T18:00:01.196Z,21.70
2022-11-26T18:04:02.263Z,21.87
2022-11-26T18:08:03.848Z,17.37
2022-11-26T18:12:08.265Z,17.73
2022-11-26T18:16:09.402Z,17.50
2022-11-26T18:20:10.765Z,17.63
2022-11-26T18:24:13.133Z,19.87
2022-11-26T18:28:18.149Z,17.73
2022-11-26T18:32:19.438Z,19.33
2022-11-26T18:36:20.696Z,18.57
2022-11-26T18:40:21.753Z,20.77
2022-11-26T18:44:23.286Z,20.70
2022-11-26T18:48:24.404Z,19.50
2022-11-26T18:52:25.659Z,19.90
2022-11-26T18:56:27.052Z,21.67
2022-11-26T19:00:28.437Z,16.13
2022-11-26T19:04:29.605Z,16.20
2022-11-26T19:08:32.337Z,15.10
2022-11-26T19:12:33.926Z,24.13
2022-11-26T19:16:35.186Z,12.53
2022-11-26T19:20:36.761Z,13.80
2022-11-26T19:24:38.035Z,12.97
2022-11-26T19:28:39.378Z,14.67
2022-11-26T19:32:40.744Z,13.13
2022-11-26T19:36:41.879Z,12.97
2022-11-26T19:40:43.042Z,14.13
2022-11-26T19:44:44.364Z,16.47
2022-11-26T19:48:47.596Z,14.50
2022-11-26T19:52:48.756Z,16.10
2022-11-26T19:56:50.027Z,13.43
2022-11-26T20:00:51.603Z,15.23
2022-11-26T20:04:52.714Z,13.87
2022-11-26T20:08:55.000Z,13.17
2022-11-26T20:12:56.234Z,17.50
2022-11-26T20:17:00.948Z,13.07
2022-11-26T20:21:03.250Z,11.87
2022-11-26T20:25:05.268Z,15.67
2022-11-26T20:29:09.299Z,13.80
2022-11-26T20:33:10.729Z,18.03
2022-11-26T20:37:11.998Z,13.43
2022-11-26T20:41:16.859Z,13.90
2022-11-26T20:45:18.016Z,18.80
2022-11-26T20:49:19.345Z,18.40
2022-11-26T20:53:20.480Z,17.17
2022-11-26T20:57:23.229Z,18.30
2022-11-26T21:01:28.333Z,19.17
2022-11-26T21:05:30.125Z,19.40
2022-11-26T21:09:31.450Z,20.23
2022-11-26T21:13:33.883Z,21.37
2022-11-26T21:17:35.819Z,22.97
2022-11-26T21:21:39.262Z,20.80
2022-11-26T21:25:42.348Z,20.90
2022-11-26T21:29:45.522Z,22.50
2022-11-26T21:33:49.573Z,22.40
2022-11-26T21:37:51.132Z,22.23
2022-11-26T21:41:52.567Z,22.83
2022-11-26T21:45:54.062Z,21.00
2022-11-26T21:49:55.391Z,21.97
2022-11-26T21:53:57.808Z,23.07
2022-11-26T21:57:59.150Z,25.37
2022-11-26T22:02:00.527Z,25.00
2022-11-26T22:06:01.785Z,25.13
2022-11-26T22:10:03.697Z,26.03
2022-11-26T22:14:05.927Z,25.27
2022-11-26T22:18:07.197Z,25.43
2022-11-26T22:22:08.431Z,30.37
2022-11-26T22:26:09.797Z,27.77
2022-11-26T22:30:12.583Z,29.03
2022-11-26T22:34:16.918Z,26.73
2022-11-26T22:38:18.072Z,30.50
2022-11-26T22:42:19.251Z,28.33
2022-11-26T22:46:22.770Z,28.00
2022-11-26T22:50:24.322Z,30.53
2022-11-26T22:54:25.579Z,27.37
2022-11-26T22:58:27.410Z,27.20
2022-11-26T23:02:28.696Z,29.20
2022-11-26T23:06:32.317Z,25.60
2022-11-26T23:10:34.038Z,25.03
2022-11-26T23:14:35.333Z,26.10
2022-11-26T23:18:37.658Z,22.97
2022-11-26T23:22:38.692Z,21.87
2022-11-26T23:26:44.157Z,24.10
2022-11-26T23:30:45.264Z,22.30
2022-11-26T23:34:47.563Z,20.93
2022-11-26T23:38:48.739Z,20.23
2022-11-26T23:42:49.903Z,19.40
2022-11-26T23:46:51.132Z,20.50
2022-11-26T23:50:52.189Z,21.43
2022-11-26T23:54:53.530Z,22.10
2022-11-26T23:58:57.196Z,23.33
